Vanndale, AR (72387)

9:31 AM CST on January 24, 2017 (GMT -0600)
MUP537 | | Change Station

Elev 219 ft 35.23 °N, 90.89 °W | Updated 7 hours ago

Clear
Clear
41.0 °F
Feels Like 41.0 °F
N
-
Wind Variable Wind from North

Today
High -- | Low -- °F
--% Chance of Precip.
Yesterday
High -- | Low -- °F
Precip. -- in
Pressure 29.94 in
Visibility 9.0 miles
Clouds Clear
Dew Point Not available.
Humidity Not available.
Rainfall 0.00 in
Snow Depth Not available.
7:07 AM 5:23 PM
Waning Crescent, 11% visible
METAR KM19 241456Z AUTO 12009KT 9SM CLR 07/04 A2991 RMK AO2 SLP136 6//// T00670044 PNO $
Pressure 29.94 in
Visibility 9.0 miles
Clouds Clear
Dew Point Not available.
Humidity Not available.
Rainfall 0.00 in
Snow Depth Not available.
7:07 AM 5:23 PM
Waning Crescent, 11% visible
METAR KM19 241456Z AUTO 12009KT 9SM CLR 07/04 A2991 RMK AO2 SLP136 6//// T00670044 PNO $

Get Your Daily Forecast Email!

Thanks for signing up!

Be on the lookout for a verification email in your inbox.

You'll start receiving the daily forecast at 8 AM.

×

10-Day Weather Forecast

Almanac

Astronomy

Jan. 24, 2017 Rise Set
Actual Time
Civil Twilight
Nautical Twilight
Astronomical Twilight
Moon
Length of Visible Light
Length of Day
Tomorrow will be .
, % of the Moon is Illuminated

Today's Extremes

State Highs State Lows

Community

WunderPhotos

Upload Photos

1,962,540 photos uploaded!

WunderBlog® & News

Nearby

Air Quality

  Air Quality AQ Index Pollutant
Not available.

Snow Depth

Station Depth Elevation

Earthquake Activity

City Distance Mag. Time & Date
Minimum magnitude displayed is 2.5.

Coastal Water Temperatures

Place Temperature

Stations

Nearby Weather Stations

Station Location Temp. Windchill Dew Point Humidity Wind Precip. Elev Updated Type
                   

Watches & Warnings

There are currently no watches in effect.